Time;durP1;ratioP1;P1;durP2;ratioP2;P2;SDS_P1;SDS_P2;PMS_P1;PMS_P2;Temp;Humidity;BMP_temperature;BMP_pressure;BME280_temperature;BME280_humidity;BME280_pressure;Samples;Min_cycle;Max_cycle;Signal;HPM_P1;HPM_P2
2023/07/24 00:02:24;;;;;;;2.50;2.30;;;;;;;;;;5011967;28;20235;-77
2023/07/24 00:04:49;;;;;;;2.72;2.33;;;;;;;;;;5049567;28;20222;-77
2023/07/24 00:07:15;;;;;;;2.55;2.25;;;;;;;;;;5035827;28;20246;-77
2023/07/24 00:09:43;;;;;;;2.35;2.13;;;;;;;;;;5044154;28;20247;-78
2023/07/24 00:12:11;;;;;;;2.45;2.28;;;;;;;;;;5032007;28;20275;-79
2023/07/24 00:14:38;;;;;;;2.53;2.33;;;;;;;;;;5046189;28;20220;-79
2023/07/24 00:17:06;;;;;;;2.95;2.20;;;;;;;;;;5044788;28;20216;-77
2023/07/24 00:19:32;;;;;;;2.33;2.13;;;;;;;;;;5028750;28;20219;-77
2023/07/24 00:22:00;;;;;;;2.72;2.20;;;;;;;;;;5029143;28;20220;-78
2023/07/24 00:24:25;;;;;;;2.30;2.20;;;;;;;;;;5028428;28;20636;-79
2023/07/24 00:26:53;;;;;;;1.90;1.80;;;;;;;;;;5011067;28;20254;-78
2023/07/24 00:29:21;;;;;;;2.72;2.45;;;;;;;;;;5029913;28;20226;-80
2023/07/24 00:31:46;;;;;;;3.60;2.38;;;;;;;;;;5028052;28;20215;-81
2023/07/24 00:34:14;;;;;;;2.53;2.33;;;;;;;;;;4990158;28;20317;-81
2023/07/24 00:36:42;;;;;;;2.20;2.10;;;;;;;;;;5029329;28;20230;-80
2023/07/24 00:39:07;;;;;;;2.47;2.28;;;;;;;;;;5032879;28;20315;-81
2023/07/24 00:41:35;;;;;;;2.42;2.22;;;;;;;;;;5011801;28;20232;-79
2023/07/24 00:44:03;;;;;;;3.28;2.30;;;;;;;;;;5029932;28;20196;-80
2023/07/24 00:46:32;;;;;;;2.70;2.28;;;;;;;;;;5017932;28;20223;-79
2023/07/24 00:49:00;;;;;;;2.45;2.25;;;;;;;;;;5009184;28;20239;-81
2023/07/24 00:51:27;;;;;;;2.50;2.30;;;;;;;;;;5022803;28;20235;-78
2023/07/24 00:53:57;;;;;;;2.70;2.50;;;;;;;;;;5020136;28;20234;-78
2023/07/24 00:56:22;;;;;;;2.58;2.35;;;;;;;;;;5042759;28;20226;-80
2023/07/24 00:58:48;;;;;;;2.85;2.65;;;;;;;;;;5009576;28;20228;-78
2023/07/24 01:01:19;;;;;;;2.65;2.45;;;;;;;;;;5049732;28;20241;-80
2023/07/24 01:03:44;;;;;;;3.03;2.67;;;;;;;;;;5011588;28;20221;-82
2023/07/24 01:06:10;;;;;;;2.83;2.60;;;;;;;;;;5015203;28;20279;-81
2023/07/24 01:08:36;;;;;;;2.47;2.25;;;;;;;;;;5022147;28;20274;-82
2023/07/24 01:11:28;;;;;;;2.78;2.58;;;;;;;;;;5008835;28;20224;-82
2023/07/24 01:13:58;;;;;;;2.90;2.60;;;;;;;;;;5032031;28;20597;-80
2023/07/24 01:16:32;;;;;;;4.35;2.60;;;;;;;;;;5042189;28;20925;-78
2023/07/24 01:19:00;;;;;;;4.40;2.53;;;;;;;;;;5023848;28;20228;-81
2023/07/24 01:21:33;;;;;;;4.35;3.00;;;;;;;;;;5024922;28;20297;-81
2023/07/24 01:24:07;;;;;;;4.32;2.65;;;;;;;;;;5025948;28;20223;-81
2023/07/24 01:26:35;;;;;;;2.85;2.65;;;;;;;;;;5024536;28;20286;-81
2023/07/24 01:29:00;;;;;;;2.78;2.58;;;;;;;;;;5039660;28;20299;-81
2023/07/24 01:31:26;;;;;;;2.88;2.67;;;;;;;;;;5020017;28;20234;-81
2023/07/24 01:33:54;;;;;;;2.97;2.75;;;;;;;;;;5000706;28;20699;-81
2023/07/24 01:36:22;;;;;;;2.75;2.47;;;;;;;;;;5014392;28;20224;-80
2023/07/24 01:38:48;;;;;;;2.65;2.45;;;;;;;;;;4989868;28;20303;-81
2023/07/24 01:41:13;;;;;;;2.65;2.45;;;;;;;;;;5007151;28;20305;-79
2023/07/24 01:43:39;;;;;;;2.90;2.47;;;;;;;;;;5034085;28;20212;-80
2023/07/24 01:46:04;;;;;;;4.47;3.05;;;;;;;;;;5022796;28;20223;-81
2023/07/24 01:48:32;;;;;;;3.95;2.90;;;;;;;;;;5045813;28;20228;-78
2023/07/24 01:50:58;;;;;;;3.10;2.88;;;;;;;;;;5040692;28;20231;-80
2023/07/24 01:53:23;;;;;;;2.95;2.75;;;;;;;;;;5025649;28;20211;-79
2023/07/24 01:55:49;;;;;;;5.07;3.03;;;;;;;;;;5036748;28;20232;-80
2023/07/24 01:58:14;;;;;;;3.15;2.88;;;;;;;;;;5025846;28;20215;-78
2023/07/24 02:00:42;;;;;;;3.17;2.88;;;;;;;;;;5035379;28;20228;-78
2023/07/24 02:03:07;;;;;;;2.80;2.60;;;;;;;;;;5047650;28;20212;-80
2023/07/24 02:05:34;;;;;;;3.22;2.70;;;;;;;;;;5024935;28;20212;-80
2023/07/24 02:07:59;;;;;;;3.10;2.80;;;;;;;;;;5050462;28;20224;-78
2023/07/24 02:10:25;;;;;;;2.97;2.78;;;;;;;;;;5017609;28;20219;-80
2023/07/24 02:12:53;;;;;;;3.15;2.90;;;;;;;;;;5036259;28;20495;-79
2023/07/24 02:15:19;;;;;;;3.10;2.90;;;;;;;;;;5006335;28;20774;-80
2023/07/24 02:17:46;;;;;;;3.53;2.92;;;;;;;;;;5048979;28;20215;-80
2023/07/24 02:20:12;;;;;;;4.43;3.00;;;;;;;;;;5007272;28;20212;-81
2023/07/24 02:22:37;;;;;;;3.53;3.22;;;;;;;;;;5021737;28;20220;-79
2023/07/24 02:25:05;;;;;;;3.33;3.05;;;;;;;;;;5027531;28;20208;-79
2023/07/24 02:27:34;;;;;;;5.57;2.80;;;;;;;;;;4998703;28;20298;-82
2023/07/24 02:29:59;;;;;;;3.05;2.85;;;;;;;;;;5038002;28;20224;-78
2023/07/24 02:32:29;;;;;;;3.00;2.80;;;;;;;;;;5037151;28;20230;-80
2023/07/24 02:34:55;;;;;;;2.97;2.78;;;;;;;;;;5021532;28;20228;-79
2023/07/24 02:37:20;;;;;;;4.13;3.20;;;;;;;;;;5034456;28;20235;-79
2023/07/24 02:39:46;;;;;;;3.40;3.10;;;;;;;;;;5013997;28;20216;-80
2023/07/24 02:42:11;;;;;;;3.05;2.85;;;;;;;;;;5020497;28;20247;-79
2023/07/24 02:44:39;;;;;;;3.60;3.30;;;;;;;;;;5029479;28;20243;-80
2023/07/24 02:47:05;;;;;;;3.47;3.17;;;;;;;;;;4976759;28;20222;-81
2023/07/24 02:49:30;;;;;;;3.55;2.90;;;;;;;;;;5034347;28;20224;-80
2023/07/24 02:51:58;;;;;;;3.10;2.85;;;;;;;;;;5043163;28;20220;-81
2023/07/24 02:54:27;;;;;;;3.17;2.97;;;;;;;;;;5018476;28;20226;-81
2023/07/24 02:56:52;;;;;;;2.97;2.78;;;;;;;;;;5012434;28;20222;-80
2023/07/24 02:59:21;;;;;;;4.22;2.85;;;;;;;;;;5034914;28;20211;-81
2023/07/24 03:01:47;;;;;;;2.72;2.53;;;;;;;;;;5048083;28;20212;-81
2023/07/24 03:04:13;;;;;;;3.05;2.85;;;;;;;;;;5032097;28;20212;-79
2023/07/24 03:06:41;;;;;;;3.00;2.80;;;;;;;;;;5039642;28;20224;-79
2023/07/24 03:09:08;;;;;;;3.10;2.90;;;;;;;;;;5039776;28;20230;-80
2023/07/24 03:11:36;;;;;;;3.58;3.28;;;;;;;;;;5016953;28;20227;-80
2023/07/24 03:14:02;;;;;;;3.25;2.97;;;;;;;;;;5037715;28;20250;-81
2023/07/24 03:16:27;;;;;;;3.72;3.05;;;;;;;;;;5035761;28;20672;-80
2023/07/24 03:18:53;;;;;;;3.08;2.80;;;;;;;;;;5042538;28;20227;-80
2023/07/24 03:21:21;;;;;;;3.13;2.92;;;;;;;;;;5019153;28;20227;-81
2023/07/24 03:23:48;;;;;;;3.33;3.13;;;;;;;;;;5026653;28;20227;-79
2023/07/24 03:26:17;;;;;;;2.97;2.78;;;;;;;;;;5033019;28;20224;-80
2023/07/24 03:28:48;;;;;;;3.03;2.83;;;;;;;;;;5022570;28;20222;-82
2023/07/24 03:31:15;;;;;;;3.08;2.88;;;;;;;;;;5020863;28;20608;-80
2023/07/24 03:33:41;;;;;;;3.50;3.22;;;;;;;;;;5022899;28;20207;-80
2023/07/24 03:36:07;;;;;;;3.58;2.95;;;;;;;;;;5044833;28;20232;-80
2023/07/24 03:38:34;;;;;;;3.63;3.28;;;;;;;;;;5035305;28;20227;-81
2023/07/24 03:41:00;;;;;;;3.60;3.30;;;;;;;;;;5034112;28;20341;-80
2023/07/24 03:43:29;;;;;;;4.03;3.33;;;;;;;;;;5025962;28;20216;-79
2023/07/24 03:45:57;;;;;;;3.53;3.22;;;;;;;;;;5002352;28;20238;-81
2023/07/24 03:48:25;;;;;;;3.78;3.42;;;;;;;;;;5045862;28;20232;-80
2023/07/24 03:51:00;;;;;;;3.30;3.10;;;;;;;;;;5012091;28;20246;-79
2023/07/24 03:53:26;;;;;;;2.95;2.75;;;;;;;;;;5016034;28;20604;-78
2023/07/24 03:55:51;;;;;;;3.65;3.35;;;;;;;;;;5018631;28;20208;-80
2023/07/24 03:58:17;;;;;;;3.58;3.33;;;;;;;;;;5014902;28;20231;-80
2023/07/24 04:04:30;;;;;;;3.70;3.40;;;;;;;;;;5045347;28;20677;-83
2023/07/24 04:07:00;;;;;;;4.30;3.90;;;;;;;;;;5026569;28;20260;-80
2023/07/24 04:09:25;;;;;;;3.42;3.20;;;;;;;;;;4995282;28;20234;-80
2023/07/24 04:11:51;;;;;;;4.30;3.88;;;;;;;;;;5030730;28;20224;-81
2023/07/24 04:14:16;;;;;;;4.00;3.55;;;;;;;;;;5031001;28;20204;-80
2023/07/24 04:16:42;;;;;;;4.20;3.90;;;;;;;;;;5032283;28;20211;-78
2023/07/24 04:19:08;;;;;;;3.88;3.58;;;;;;;;;;5042452;28;20590;-79
2023/07/24 04:21:36;;;;;;;4.20;3.90;;;;;;;;;;5008712;28;20232;-78
2023/07/24 04:24:04;;;;;;;4.55;4.18;;;;;;;;;;5012806;28;20216;-78
2023/07/24 04:26:32;;;;;;;4.90;4.47;;;;;;;;;;5000713;28;20218;-78
2023/07/24 04:28:59;;;;;;;4.88;4.47;;;;;;;;;;5027023;28;20225;-79
2023/07/24 04:31:25;;;;;;;4.68;4.38;;;;;;;;;;5025791;28;20224;-79
2023/07/24 04:33:50;;;;;;;4.35;4.05;;;;;;;;;;5029929;28;20643;-78
2023/07/24 04:36:16;;;;;;;5.28;4.88;;;;;;;;;;5009137;28;20627;-79
2023/07/24 04:38:46;;;;;;;8.05;4.40;;;;;;;;;;4999599;28;20676;-79
2023/07/24 04:41:13;;;;;;;4.82;4.43;;;;;;;;;;5043296;28;20842;-76
2023/07/24 04:43:41;;;;;;;5.07;4.68;;;;;;;;;;5016693;28;20278;-79
2023/07/24 04:46:07;;;;;;;5.15;4.65;;;;;;;;;;5032510;28;20223;-78
2023/07/24 04:48:34;;;;;;;4.82;4.40;;;;;;;;;;5032982;28;20223;-77
2023/07/24 04:51:00;;;;;;;4.78;4.38;;;;;;;;;;5011480;28;20243;-79
2023/07/24 04:53:25;;;;;;;5.15;4.80;;;;;;;;;;5042550;28;20276;-77
2023/07/24 04:55:51;;;;;;;5.32;4.93;;;;;;;;;;5029694;28;20220;-77
2023/07/24 04:58:16;;;;;;;5.05;4.55;;;;;;;;;;5014712;28;20269;-79
2023/07/24 05:00:42;;;;;;;5.18;4.78;;;;;;;;;;5031118;28;20707;-78
2023/07/24 05:03:10;;;;;;;5.55;5.05;;;;;;;;;;5025782;28;20211;-78
2023/07/24 05:05:41;;;;;;;5.20;4.80;;;;;;;;;;5009373;28;20285;-79
2023/07/24 05:08:06;;;;;;;5.22;4.90;;;;;;;;;;5028129;28;20231;-79
2023/07/24 05:10:40;;;;;;;5.43;4.53;;;;;;;;;;5013966;28;20231;-76
2023/07/24 05:13:08;;;;;;;4.80;4.40;;;;;;;;;;5037326;28;20285;-78
2023/07/24 05:15:34;;;;;;;4.65;4.25;;;;;;;;;;5023775;28;20231;-77
2023/07/24 05:18:02;;;;;;;4.53;4.22;;;;;;;;;;4995087;28;20231;-78
2023/07/24 05:20:29;;;;;;;4.88;4.47;;;;;;;;;;5041475;28;20219;-80
2023/07/24 05:22:55;;;;;;;4.50;4.15;;;;;;;;;;5027534;28;20274;-78
2023/07/24 05:25:23;;;;;;;5.40;5.00;;;;;;;;;;5027842;28;20223;-77
2023/07/24 05:27:51;;;;;;;4.95;4.53;;;;;;;;;;5022592;28;20219;-80
2023/07/24 05:30:19;;;;;;;5.10;4.70;;;;;;;;;;5026966;28;20216;-76
2023/07/24 05:32:44;;;;;;;5.35;4.95;;;;;;;;;;5029113;28;20227;-77
2023/07/24 05:35:10;;;;;;;6.15;5.65;;;;;;;;;;5039969;28;21230;-79
2023/07/24 05:37:35;;;;;;;5.88;5.38;;;;;;;;;;5025820;28;20226;-81
2023/07/24 05:40:03;;;;;;;5.60;5.10;;;;;;;;;;5020437;28;20220;-76
2023/07/24 05:42:31;;;;;;;5.72;5.28;;;;;;;;;;5033354;28;20232;-77
2023/07/24 05:44:56;;;;;;;6.15;4.75;;;;;;;;;;5002039;28;20215;-77
2023/07/24 05:47:22;;;;;;;7.10;5.32;;;;;;;;;;5024172;28;20228;-77
2023/07/24 05:49:50;;;;;;;5.30;4.80;;;;;;;;;;5026791;28;20246;-77
2023/07/24 05:52:16;;;;;;;5.03;4.63;;;;;;;;;;4998477;28;20255;-75
2023/07/24 05:54:41;;;;;;;4.97;4.57;;;;;;;;;;5050836;28;20235;-75
2023/07/24 05:57:07;;;;;;;5.07;4.68;;;;;;;;;;5022407;28;20220;-75
2023/07/24 05:59:32;;;;;;;4.75;4.35;;;;;;;;;;5031418;28;20219;-79
2023/07/24 06:01:58;;;;;;;4.63;4.22;;;;;;;;;;5030043;28;20212;-79
2023/07/24 06:04:25;;;;;;;4.78;4.38;;;;;;;;;;4982846;28;20224;-79
2023/07/24 06:06:55;;;;;;;4.53;4.13;;;;;;;;;;5019502;28;20570;-78
2023/07/24 06:09:23;;;;;;;4.57;4.28;;;;;;;;;;5031546;28;20227;-79
2023/07/24 06:11:49;;;;;;;5.00;4.70;;;;;;;;;;5043572;28;20223;-79
2023/07/24 06:14:14;;;;;;;5.32;4.93;;;;;;;;;;5042419;28;20215;-80
2023/07/24 06:16:40;;;;;;;6.28;4.88;;;;;;;;;;5032483;28;20221;-80
2023/07/24 06:19:10;;;;;;;4.30;4.03;;;;;;;;;;4998321;28;20228;-79
2023/07/24 06:21:38;;;;;;;5.22;4.72;;;;;;;;;;5044807;28;20260;-79
2023/07/24 06:24:06;;;;;;;5.20;4.80;;;;;;;;;;5013554;28;20301;-79
2023/07/24 06:26:31;;;;;;;6.47;4.45;;;;;;;;;;5027595;28;20235;-77
2023/07/24 06:28:59;;;;;;;4.80;4.40;;;;;;;;;;5030547;28;20240;-79
2023/07/24 06:31:25;;;;;;;4.57;4.20;;;;;;;;;;5045973;28;20223;-80
2023/07/24 06:33:50;;;;;;;4.80;4.40;;;;;;;;;;5020230;28;20251;-79
2023/07/24 06:36:16;;;;;;;4.40;4.00;;;;;;;;;;5031852;28;20210;-79
2023/07/24 06:38:42;;;;;;;5.15;4.75;;;;;;;;;;5013543;28;20233;-76
2023/07/24 06:41:10;;;;;;;5.25;4.85;;;;;;;;;;5028108;28;20220;-79
2023/07/24 06:43:35;;;;;;;6.43;5.38;;;;;;;;;;5042869;28;20649;-78
2023/07/24 06:46:01;;;;;;;9.38;5.57;;;;;;;;;;5017485;28;20215;-77
2023/07/24 06:48:26;;;;;;;6.60;5.82;;;;;;;;;;5042011;28;20212;-76
2023/07/24 06:50:54;;;;;;;6.07;5.47;;;;;;;;;;5004868;28;20241;-77
2023/07/24 06:53:22;;;;;;;6.47;5.88;;;;;;;;;;5037163;28;20330;-78
2023/07/24 06:55:48;;;;;;;6.57;5.95;;;;;;;;;;5029469;28;20681;-76
2023/07/24 06:58:13;;;;;;;6.53;5.93;;;;;;;;;;5015113;28;20204;-78
2023/07/24 07:00:41;;;;;;;6.28;5.78;;;;;;;;;;5029611;28;20219;-76
2023/07/24 07:03:10;;;;;;;6.28;5.78;;;;;;;;;;5030394;28;20222;-78
2023/07/24 07:05:35;;;;;;;7.68;6.78;;;;;;;;;;5041572;28;20220;-77
2023/07/24 07:08:03;;;;;;;7.00;6.40;;;;;;;;;;5018262;28;20220;-76
2023/07/24 07:10:30;;;;;;;7.80;5.72;;;;;;;;;;5048503;28;20606;-77
2023/07/24 07:13:00;;;;;;;7.55;6.85;;;;;;;;;;5017949;28;20279;-78
2023/07/24 07:15:28;;;;;;;6.93;6.35;;;;;;;;;;5027475;28;20276;-78
2023/07/24 07:17:56;;;;;;;6.68;6.07;;;;;;;;;;5035645;28;20218;-77
2023/07/24 07:20:24;;;;;;;8.18;7.10;;;;;;;;;;4997165;28;20215;-78
2023/07/24 07:22:52;;;;;;;9.35;7.55;;;;;;;;;;4991732;28;20285;-79
2023/07/24 07:25:19;;;;;;;8.65;7.78;;;;;;;;;;5027301;28;20220;-78
2023/07/24 07:27:47;;;;;;;10.40;8.63;;;;;;;;;;5003553;28;20601;-78
2023/07/24 07:30:16;;;;;;;18.60;8.73;;;;;;;;;;5039589;28;20227;-78
2023/07/24 07:32:49;;;;;;;11.88;7.38;;;;;;;;;;5015282;28;20212;-78
2023/07/24 07:35:14;;;;;;;7.72;6.93;;;;;;;;;;5039004;28;20790;-78
2023/07/24 07:37:40;;;;;;;15.60;7.80;;;;;;;;;;5027563;28;20220;-78
2023/07/24 07:40:06;;;;;;;7.18;6.40;;;;;;;;;;5005786;28;20216;-77
2023/07/24 07:42:31;;;;;;;12.18;7.43;;;;;;;;;;5039658;28;20269;-77
2023/07/24 07:44:57;;;;;;;11.60;7.32;;;;;;;;;;5032004;28;20259;-77
2023/07/24 07:47:22;;;;;;;7.70;6.90;;;;;;;;;;5012694;28;20237;-78
2023/07/24 07:49:48;;;;;;;7.00;5.88;;;;;;;;;;5029693;28;20226;-78
2023/07/24 07:52:17;;;;;;;5.40;4.55;;;;;;;;;;5020990;28;20216;-78
2023/07/24 07:54:47;;;;;;;4.00;3.70;;;;;;;;;;5045624;28;20223;-77
2023/07/24 07:57:15;;;;;;;4.95;4.20;;;;;;;;;;5026712;28;20227;-77
2023/07/24 07:59:41;;;;;;;4.10;3.60;;;;;;;;;;5030910;28;20229;-78
2023/07/24 08:02:09;;;;;;;3.85;3.53;;;;;;;;;;5041306;28;20219;-77
2023/07/24 08:04:37;;;;;;;4.80;3.78;;;;;;;;;;5028056;28;20215;-78
2023/07/24 08:07:05;;;;;;;3.78;3.53;;;;;;;;;;5012607;28;20259;-78
2023/07/24 08:09:33;;;;;;;4.10;3.80;;;;;;;;;;5022629;28;20215;-77
2023/07/24 08:12:01;;;;;;;4.32;4.03;;;;;;;;;;5006691;28;20731;-77
2023/07/24 08:14:27;;;;;;;4.40;4.10;;;;;;;;;;5012627;28;20258;-76
2023/07/24 08:16:55;;;;;;;4.50;4.18;;;;;;;;;;5031006;28;20224;-79
2023/07/24 08:19:25;;;;;;;4.88;4.20;;;;;;;;;;5041108;28;20227;-77
2023/07/24 08:21:50;;;;;;;4.25;3.95;;;;;;;;;;5011267;28;20242;-77
2023/07/24 08:24:18;;;;;;;4.22;3.92;;;;;;;;;;4990257;28;20234;-77
2023/07/24 08:26:46;;;;;;;4.88;4.47;;;;;;;;;;5040751;28;20234;-79
2023/07/24 08:29:11;;;;;;;4.18;3.88;;;;;;;;;;5026804;28;20633;-77
2023/07/24 08:31:37;;;;;;;6.07;3.83;;;;;;;;;;5022268;28;20223;-78
2023/07/24 08:34:07;;;;;;;3.88;3.58;;;;;;;;;;5031486;28;20212;-77
2023/07/24 08:36:37;;;;;;;3.75;3.45;;;;;;;;;;5025907;28;20229;-77
2023/07/24 08:39:03;;;;;;;3.10;2.92;;;;;;;;;;5031677;28;20310;-77
2023/07/24 08:41:29;;;;;;;3.08;2.88;;;;;;;;;;5012146;28;20227;-77
2023/07/24 08:43:55;;;;;;;6.97;2.78;;;;;;;;;;5041176;28;20207;-77
2023/07/24 08:46:20;;;;;;;3.42;2.90;;;;;;;;;;4988496;28;20235;-77
2023/07/24 08:48:46;;;;;;;5.82;3.00;;;;;;;;;;5027731;28;21138;-77
2023/07/24 08:51:16;;;;;;;3.08;2.88;;;;;;;;;;5012180;28;20227;-78
2023/07/24 08:53:42;;;;;;;2.63;2.42;;;;;;;;;;5019415;28;20289;-78
2023/07/24 08:56:10;;;;;;;3.20;2.90;;;;;;;;;;5026898;28;20212;-77
2023/07/24 08:58:36;;;;;;;3.83;3.30;;;;;;;;;;5022654;28;20292;-78
2023/07/24 09:01:02;;;;;;;3.90;3.70;;;;;;;;;;5030860;28;20219;-78
2023/07/24 09:03:30;;;;;;;4.00;3.70;;;;;;;;;;5014439;28;20228;-76
2023/07/24 09:05:56;;;;;;;4.05;3.85;;;;;;;;;;5004705;28;20212;-79
2023/07/24 09:08:41;;;;;;;4.60;4.30;;;;;;;;;;5014947;28;20599;-78
2023/07/24 09:11:08;;;;;;;4.03;3.72;;;;;;;;;;5008110;28;20230;-79
2023/07/24 09:13:35;;;;;;;5.50;5.10;;;;;;;;;;5020940;28;20215;-76
2023/07/24 09:16:00;;;;;;;6.93;6.43;;;;;;;;;;5037397;28;20223;-77
2023/07/24 09:18:26;;;;;;;7.30;6.70;;;;;;;;;;5040170;28;20721;-77
2023/07/24 09:20:52;;;;;;;6.03;5.30;;;;;;;;;;5012842;28;20223;-79
2023/07/24 09:23:28;;;;;;;6.03;5.45;;;;;;;;;;5007391;28;20273;-79
2023/07/24 09:25:53;;;;;;;6.32;5.82;;;;;;;;;;5012822;28;20215;-77
2023/07/24 09:28:19;;;;;;;6.72;6.07;;;;;;;;;;5011111;28;20230;-77
2023/07/24 09:30:53;;;;;;;6.20;5.78;;;;;;;;;;5029723;28;20602;-77
2023/07/24 09:33:39;;;;;;;6.82;6.22;;;;;;;;;;5022470;28;20282;-77
2023/07/24 09:36:08;;;;;;;10.35;5.63;;;;;;;;;;5006693;28;20317;-77
2023/07/24 09:38:35;;;;;;;6.97;6.38;;;;;;;;;;5007504;28;20591;-77
2023/07/24 09:41:03;;;;;;;5.97;5.60;;;;;;;;;;4990944;28;20571;-77
2023/07/24 09:43:29;;;;;;;5.90;5.50;;;;;;;;;;5006406;28;20234;-76
2023/07/24 09:45:57;;;;;;;6.38;5.80;;;;;;;;;;5024820;28;20338;-77
2023/07/24 09:48:25;;;;;;;6.53;5.93;;;;;;;;;;5010913;28;20246;-76
2023/07/24 09:50:55;;;;;;;5.97;5.57;;;;;;;;;;5028850;28;20242;-78
2023/07/24 09:53:34;;;;;;;6.13;5.72;;;;;;;;;;5010940;28;20220;-79
2023/07/24 09:56:04;;;;;;;4.53;4.20;;;;;;;;;;4988267;28;20341;-78
2023/07/24 09:58:34;;;;;;;4.45;3.85;;;;;;;;;;5023057;28;20656;-77
2023/07/24 10:01:03;;;;;;;4.25;3.97;;;;;;;;;;5020616;28;20217;-78
2023/07/24 10:03:28;;;;;;;4.30;3.90;;;;;;;;;;5021952;28;20228;-77
2023/07/24 10:05:54;;;;;;;3.60;3.40;;;;;;;;;;5013786;28;20217;-76
2023/07/24 10:08:19;;;;;;;3.58;3.38;;;;;;;;;;5032156;28;20219;-78
2023/07/24 10:10:45;;;;;;;3.50;3.20;;;;;;;;;;5027764;28;21056;-78
2023/07/24 10:13:14;;;;;;;2.95;2.75;;;;;;;;;;5053583;28;20224;-77
2023/07/24 10:15:41;;;;;;;3.10;2.90;;;;;;;;;;5024721;28;20215;-75
2023/07/24 10:18:07;;;;;;;2.42;2.33;;;;;;;;;;5019260;28;20224;-76
2023/07/24 10:20:35;;;;;;;1.80;1.70;;;;;;;;;;5016824;28;20286;-76
2023/07/24 10:23:02;;;;;;;2.03;1.90;;;;;;;;;;5035084;28;20219;-79
2023/07/24 10:25:36;;;;;;;2.08;1.98;;;;;;;;;;5009121;28;21280;-78
2023/07/24 10:28:07;;;;;;;1.60;1.50;;;;;;;;;;5003946;28;20235;-79
2023/07/24 10:30:36;;;;;;;1.83;1.73;;;;;;;;;;5025533;28;20427;-77
2023/07/24 10:33:17;;;;;;;2.00;1.90;;;;;;;;;;4975300;28;20223;-77
2023/07/24 10:35:45;;;;;;;2.65;2.10;;;;;;;;;;5005661;28;20235;-75
2023/07/24 10:38:12;;;;;;;2.28;1.80;;;;;;;;;;5010520;28;20219;-77
2023/07/24 10:40:38;;;;;;;2.38;2.17;;;;;;;;;;5044304;28;20225;-79
2023/07/24 10:43:17;;;;;;;1.63;1.50;;;;;;;;;;4977948;28;20291;-78
2023/07/24 10:45:53;;;;;;;2.20;1.88;;;;;;;;;;5022306;28;20219;-77
2023/07/24 10:48:20;;;;;;;1.55;1.45;;;;;;;;;;5023496;28;20226;-78
2023/07/24 10:50:47;;;;;;;1.45;1.35;;;;;;;;;;5015710;28;20285;-80
2023/07/24 10:53:19;;;;;;;1.52;1.42;;;;;;;;;;5014775;28;20212;-77
2023/07/24 10:55:45;;;;;;;0.95;0.95;;;;;;;;;;5030789;28;20224;-77
2023/07/24 10:58:11;;;;;;;0.85;0.85;;;;;;;;;;5016011;28;20216;-78
2023/07/24 11:00:41;;;;;;;1.42;1.33;;;;;;;;;;4999789;28;20320;-79
2023/07/24 11:03:10;;;;;;;1.13;1.02;;;;;;;;;;5043079;28;20739;-78
2023/07/24 11:05:42;;;;;;;1.00;1.00;;;;;;;;;;5033219;28;20281;-79
2023/07/24 11:08:14;;;;;;;1.17;1.08;;;;;;;;;;5031509;28;20216;-79
2023/07/24 11:11:01;;;;;;;1.10;1.10;;;;;;;;;;5032443;28;20235;-79
2023/07/24 11:13:30;;;;;;;1.85;1.23;;;;;;;;;;5034317;28;20231;-76
2023/07/24 11:16:03;;;;;;;1.50;1.30;;;;;;;;;;4988315;28;20216;-75
2023/07/24 11:18:30;;;;;;;1.08;1.05;;;;;;;;;;4989423;28;20220;-78
2023/07/24 11:20:56;;;;;;;1.27;1.17;;;;;;;;;;5002425;28;20220;-78
2023/07/24 11:23:22;;;;;;;2.45;0.90;;;;;;;;;;5002977;28;20225;-77
2023/07/24 11:25:51;;;;;;;1.42;0.90;;;;;;;;;;5020870;28;20224;-75
2023/07/24 11:28:20;;;;;;;0.80;0.80;;;;;;;;;;5036018;28;20644;-77
2023/07/24 11:30:48;;;;;;;1.20;0.95;;;;;;;;;;5037622;28;20216;-76
2023/07/24 11:33:15;;;;;;;1.40;1.20;;;;;;;;;;5032059;28;20298;-78
2023/07/24 11:35:42;;;;;;;1.40;1.27;;;;;;;;;;5033065;28;20235;-77
2023/07/24 11:38:09;;;;;;;3.63;2.30;;;;;;;;;;5011863;28;20211;-76
2023/07/24 11:40:39;;;;;;;1.00;1.00;;;;;;;;;;5016184;28;20220;-77
2023/07/24 11:43:14;;;;;;;1.25;1.25;;;;;;;;;;5045205;28;20247;-77
2023/07/24 11:45:43;;;;;;;1.50;1.40;;;;;;;;;;5031436;28;20224;-78
2023/07/24 11:48:09;;;;;;;1.33;1.17;;;;;;;;;;5055010;28;20231;-75
2023/07/24 11:50:47;;;;;;;1.00;1.00;;;;;;;;;;5010906;28;20216;-77
2023/07/24 11:53:26;;;;;;;1.10;1.08;;;;;;;;;;5034952;28;20215;-76
2023/07/24 11:55:53;;;;;;;1.10;1.00;;;;;;;;;;5025342;28;20243;-76
2023/07/24 11:58:23;;;;;;;1.20;1.10;;;;;;;;;;5022384;28;20258;-79
2023/07/24 12:00:51;;;;;;;2.03;1.08;;;;;;;;;;5005681;28;20215;-78
2023/07/24 12:03:29;;;;;;;1.63;1.10;;;;;;;;;;5038914;28;20215;-78
2023/07/24 12:05:55;;;;;;;0.82;0.82;;;;;;;;;;5036386;28;20984;-79
2023/07/24 12:08:24;;;;;;;1.23;0.98;;;;;;;;;;5023698;28;20250;-76
2023/07/24 12:10:52;;;;;;;2.83;1.20;;;;;;;;;;5025922;28;20286;-78
2023/07/24 12:13:23;;;;;;;1.38;1.15;;;;;;;;;;5019205;28;20247;-75
2023/07/24 12:15:53;;;;;;;0.85;0.85;;;;;;;;;;5032886;28;20247;-77
2023/07/24 12:18:23;;;;;;;0.85;0.85;;;;;;;;;;5030523;28;20273;-79
2023/07/24 12:20:48;;;;;;;0.85;0.85;;;;;;;;;;5038693;28;20253;-74
2023/07/24 12:23:14;;;;;;;1.10;1.00;;;;;;;;;;5022634;28;20216;-75
2023/07/24 12:25:42;;;;;;;1.77;1.23;;;;;;;;;;5037052;28;20719;-75
2023/07/24 12:28:10;;;;;;;1.00;0.90;;;;;;;;;;5024862;28;20220;-77
2023/07/24 12:30:35;;;;;;;1.45;1.30;;;;;;;;;;5028160;28;20334;-79
2023/07/24 12:33:01;;;;;;;1.27;1.17;;;;;;;;;;5037598;28;20637;-76
2023/07/24 12:35:26;;;;;;;1.10;1.00;;;;;;;;;;5022489;28;20793;-78
2023/07/24 12:37:54;;;;;;;1.45;1.20;;;;;;;;;;5032832;28;20281;-77
2023/07/24 12:40:19;;;;;;;2.33;1.23;;;;;;;;;;5011128;28;20216;-77
2023/07/24 12:42:45;;;;;;;1.50;1.10;;;;;;;;;;5019255;28;20254;-77
2023/07/24 12:45:10;;;;;;;1.00;1.00;;;;;;;;;;5025848;28;20222;-79
2023/07/24 12:47:36;;;;;;;1.40;1.23;;;;;;;;;;5009238;28;20289;-79
2023/07/24 12:50:02;;;;;;;1.40;1.30;;;;;;;;;;5032335;28;20236;-78
2023/07/24 12:52:28;;;;;;;1.20;1.10;;;;;;;;;;5027806;28;20228;-78
2023/07/24 12:54:57;;;;;;;1.35;1.25;;;;;;;;;;4978827;28;20303;-78
2023/07/24 12:57:22;;;;;;;1.88;1.40;;;;;;;;;;5007933;28;21372;-78
2023/07/24 12:59:48;;;;;;;1.40;1.30;;;;;;;;;;4992828;28;20228;-81
2023/07/24 13:02:13;;;;;;;1.50;1.40;;;;;;;;;;5017777;28;20343;-79
2023/07/24 13:04:39;;;;;;;1.70;1.60;;;;;;;;;;5023344;28;20212;-79
2023/07/24 13:07:09;;;;;;;2.72;1.70;;;;;;;;;;5012519;28;20227;-77
2023/07/24 13:09:35;;;;;;;3.47;1.50;;;;;;;;;;5048762;28;20230;-81
2023/07/24 13:12:00;;;;;;;1.80;1.70;;;;;;;;;;5008305;28;20489;-80
2023/07/24 13:14:28;;;;;;;2.17;1.80;;;;;;;;;;4996080;28;20224;-79
2023/07/24 13:16:53;;;;;;;1.98;1.60;;;;;;;;;;4990700;28;20222;-79
2023/07/24 13:19:19;;;;;;;2.38;1.80;;;;;;;;;;5028421;28;20593;-79
2023/07/24 13:21:47;;;;;;;2.15;1.80;;;;;;;;;;4984788;28;20211;-78
2023/07/24 13:24:15;;;;;;;1.90;1.80;;;;;;;;;;5000746;28;20261;-78
2023/07/24 13:26:40;;;;;;;2.17;2.05;;;;;;;;;;5033910;28;20704;-77
2023/07/24 13:29:06;;;;;;;2.47;2.13;;;;;;;;;;5049265;28;20251;-78
2023/07/24 13:31:32;;;;;;;2.20;2.00;;;;;;;;;;5035898;28;20219;-77
2023/07/24 13:33:59;;;;;;;1.95;1.83;;;;;;;;;;5040789;28;20220;-77
2023/07/24 13:36:27;;;;;;;2.33;1.98;;;;;;;;;;4996942;28;20250;-76
2023/07/24 13:38:53;;;;;;;2.30;2.10;;;;;;;;;;5044985;28;20303;-76
2023/07/24 13:41:20;;;;;;;2.28;2.10;;;;;;;;;;5027083;28;20223;-76
2023/07/24 13:43:46;;;;;;;1.92;1.75;;;;;;;;;;5024965;28;20219;-76
2023/07/24 13:46:12;;;;;;;2.25;1.75;;;;;;;;;;5027469;28;20298;-76
2023/07/24 13:48:37;;;;;;;2.20;2.00;;;;;;;;;;5037592;28;20219;-78
2023/07/24 13:51:03;;;;;;;2.83;1.73;;;;;;;;;;5025472;28;20224;-77
2023/07/24 13:53:31;;;;;;;1.90;1.80;;;;;;;;;;5023278;28;20222;-78
2023/07/24 13:55:56;;;;;;;1.95;1.85;;;;;;;;;;5021271;28;20219;-78
2023/07/24 13:58:22;;;;;;;2.58;1.73;;;;;;;;;;5027922;28;20235;-78
2023/07/24 14:00:47;;;;;;;2.30;2.10;;;;;;;;;;5030197;28;20227;-77
2023/07/24 14:03:13;;;;;;;3.00;1.90;;;;;;;;;;5020487;28;20215;-78
2023/07/24 14:05:38;;;;;;;2.03;1.83;;;;;;;;;;5004721;28;20222;-77
2023/07/24 14:08:06;;;;;;;1.90;1.80;;;;;;;;;;5017041;28;20231;-79
2023/07/24 14:10:32;;;;;;;3.05;1.98;;;;;;;;;;5043991;28;20224;-79
2023/07/24 14:12:57;;;;;;;2.33;1.90;;;;;;;;;;5016506;28;20220;-81
2023/07/24 14:15:23;;;;;;;3.10;1.90;;;;;;;;;;5009168;28;20225;-77
2023/07/24 14:17:51;;;;;;;2.72;1.67;;;;;;;;;;5035665;28;20211;-79
2023/07/24 14:20:16;;;;;;;2.25;1.80;;;;;;;;;;5049309;28;20230;-77
2023/07/24 14:22:42;;;;;;;2.05;1.95;;;;;;;;;;5011448;28;20219;-81
2023/07/24 14:25:07;;;;;;;2.03;1.90;;;;;;;;;;5034544;28;20211;-79
2023/07/24 14:27:33;;;;;;;2.15;1.88;;;;;;;;;;5043194;28;20271;-78
2023/07/24 14:29:59;;;;;;;2.08;1.83;;;;;;;;;;5033309;28;20237;-80
2023/07/24 14:32:24;;;;;;;1.92;1.83;;;;;;;;;;5030955;28;20211;-78
2023/07/24 14:34:51;;;;;;;1.90;1.75;;;;;;;;;;5031602;28;20220;-78
2023/07/24 14:37:16;;;;;;;1.90;1.80;;;;;;;;;;5033371;28;20212;-78
2023/07/24 14:39:44;;;;;;;2.63;1.98;;;;;;;;;;5034901;28;20223;-77
2023/07/24 14:42:12;;;;;;;2.35;2.00;;;;;;;;;;5010181;28;20228;-78
2023/07/24 14:44:37;;;;;;;1.98;1.80;;;;;;;;;;5034127;28;20224;-78
2023/07/24 14:47:06;;;;;;;2.25;2.00;;;;;;;;;;4990648;28;20235;-80
2023/07/24 14:49:32;;;;;;;2.40;2.20;;;;;;;;;;5032286;28;20277;-79